sensor_id;sensor_type;location;lat;lon;timestamp;temperature;humidity
947;DHT22;460;48.734;9.152;2022-08-03T00:01:05;19.30;87.30
947;DHT22;460;48.734;9.152;2022-08-03T00:03:32;19.20;86.90
947;DHT22;460;48.734;9.152;2022-08-03T00:05:59;19.30;87.10
947;DHT22;460;48.734;9.152;2022-08-03T00:08:26;19.20;89.50
947;DHT22;460;48.734;9.152;2022-08-03T00:10:53;19.10;89.90
947;DHT22;460;48.734;9.152;2022-08-03T00:13:20;19.10;90.00
947;DHT22;460;48.734;9.152;2022-08-03T00:15:50;19.10;88.90
947;DHT22;460;48.734;9.152;2022-08-03T00:18:17;19.20;88.70
947;DHT22;460;48.734;9.152;2022-08-03T00:20:45;19.10;90.10
947;DHT22;460;48.734;9.152;2022-08-03T00:23:13;19.00;90.30
947;DHT22;460;48.734;9.152;2022-08-03T00:25:40;18.90;90.50
947;DHT22;460;48.734;9.152;2022-08-03T00:28:07;18.90;90.90
947;DHT22;460;48.734;9.152;2022-08-03T00:30:36;19.00;90.80
947;DHT22;460;48.734;9.152;2022-08-03T00:33:05;19.00;91.30
947;DHT22;460;48.734;9.152;2022-08-03T00:35:33;19.00;91.40
947;DHT22;460;48.734;9.152;2022-08-03T00:38:00;18.90;91.40
947;DHT22;460;48.734;9.152;2022-08-03T00:40:28;18.90;92.00
947;DHT22;460;48.734;9.152;2022-08-03T00:42:57;18.90;92.20
947;DHT22;460;48.734;9.152;2022-08-03T00:45:27;18.90;91.40
947;DHT22;460;48.734;9.152;2022-08-03T00:47:57;18.90;91.90
947;DHT22;460;48.734;9.152;2022-08-03T00:50:27;18.70;92.40
947;DHT22;460;48.734;9.152;2022-08-03T00:52:57;18.70;92.90
947;DHT22;460;48.734;9.152;2022-08-03T00:55:27;18.60;92.80
947;DHT22;460;48.734;9.152;2022-08-03T00:57:54;18.60;93.00
947;DHT22;460;48.734;9.152;2022-08-03T01:00:23;18.70;93.30
947;DHT22;460;48.734;9.152;2022-08-03T01:02:50;18.70;93.40
947;DHT22;460;48.734;9.152;2022-08-03T01:05:18;18.70;93.20
947;DHT22;460;48.734;9.152;2022-08-03T01:08:01;18.70;92.40
947;DHT22;460;48.734;9.152;2022-08-03T01:10:35;18.70;92.70
947;DHT22;460;48.734;9.152;2022-08-03T01:13:17;18.70;92.30
947;DHT22;460;48.734;9.152;2022-08-03T01:15:53;18.70;92.40
947;DHT22;460;48.734;9.152;2022-08-03T01:18:30;18.70;92.40
947;DHT22;460;48.734;9.152;2022-08-03T01:21:01;18.70;92.60
947;DHT22;460;48.734;9.152;2022-08-03T01:29:51;18.60;93.70
947;DHT22;460;48.734;9.152;2022-08-03T01:32:25;18.60;93.50
947;DHT22;460;48.734;9.152;2022-08-03T01:34:59;18.50;93.90
947;DHT22;460;48.734;9.152;2022-08-03T01:37:34;18.50;94.20
947;DHT22;460;48.734;9.152;2022-08-03T01:40:04;18.40;94.90
947;DHT22;460;48.734;9.152;2022-08-03T01:42:33;18.40;94.90
947;DHT22;460;48.734;9.152;2022-08-03T01:45:04;18.30;95.20
947;DHT22;460;48.734;9.152;2022-08-03T01:47:35;18.30;95.70
947;DHT22;460;48.734;9.152;2022-08-03T01:50:04;18.40;95.30
947;DHT22;460;48.734;9.152;2022-08-03T01:52:33;18.40;94.90
947;DHT22;460;48.734;9.152;2022-08-03T01:55:05;18.40;95.10
947;DHT22;460;48.734;9.152;2022-08-03T01:57:34;18.40;95.80
947;DHT22;460;48.734;9.152;2022-08-03T02:00:05;18.40;95.60
947;DHT22;460;48.734;9.152;2022-08-03T02:02:35;18.40;94.90
947;DHT22;460;48.734;9.152;2022-08-03T02:05:04;18.40;95.20
947;DHT22;460;48.734;9.152;2022-08-03T02:07:32;18.40;95.80
947;DHT22;460;48.734;9.152;2022-08-03T02:10:01;18.30;95.60
947;DHT22;460;48.734;9.152;2022-08-03T02:12:31;18.20;96.20
947;DHT22;460;48.734;9.152;2022-08-03T02:14:59;18.20;96.30
947;DHT22;460;48.734;9.152;2022-08-03T02:17:29;18.20;96.80
947;DHT22;460;48.734;9.152;2022-08-03T02:19:58;18.20;95.80
947;DHT22;460;48.734;9.152;2022-08-03T02:22:26;18.20;96.00
947;DHT22;460;48.734;9.152;2022-08-03T02:24:54;18.30;95.50
947;DHT22;460;48.734;9.152;2022-08-03T02:27:23;18.30;96.10
947;DHT22;460;48.734;9.152;2022-08-03T02:29:53;18.20;96.50
947;DHT22;460;48.734;9.152;2022-08-03T02:32:25;18.20;97.30
947;DHT22;460;48.734;9.152;2022-08-03T02:34:57;18.20;96.80
947;DHT22;460;48.734;9.152;2022-08-03T02:37:27;18.20;96.80
947;DHT22;460;48.734;9.152;2022-08-03T02:39:59;18.30;97.10
947;DHT22;460;48.734;9.152;2022-08-03T02:42:28;18.20;97.00
947;DHT22;460;48.734;9.152;2022-08-03T02:44:58;18.10;97.50
947;DHT22;460;48.734;9.152;2022-08-03T02:47:27;18.10;98.10
947;DHT22;460;48.734;9.152;2022-08-03T02:49:56;18.10;98.10
947;DHT22;460;48.734;9.152;2022-08-03T02:52:27;18.00;98.20
947;DHT22;460;48.734;9.152;2022-08-03T02:54:56;18.00;98.40
947;DHT22;460;48.734;9.152;2022-08-03T02:57:26;18.10;98.00
947;DHT22;460;48.734;9.152;2022-08-03T02:59:54;18.00;97.40
947;DHT22;460;48.734;9.152;2022-08-03T03:02:23;18.00;97.10
947;DHT22;460;48.734;9.152;2022-08-03T03:04:51;18.10;96.80
947;DHT22;460;48.734;9.152;2022-08-03T03:07:20;18.10;97.30
947;DHT22;460;48.734;9.152;2022-08-03T03:09:47;18.00;98.10
947;DHT22;460;48.734;9.152;2022-08-03T03:12:16;17.80;99.00
947;DHT22;460;48.734;9.152;2022-08-03T03:14:43;17.90;98.90
947;DHT22;460;48.734;9.152;2022-08-03T03:17:11;17.90;99.10
947;DHT22;460;48.734;9.152;2022-08-03T03:19:38;17.90;99.00
947;DHT22;460;48.734;9.152;2022-08-03T03:22:07;18.00;98.50
947;DHT22;460;48.734;9.152;2022-08-03T03:24:36;17.90;98.90
947;DHT22;460;48.734;9.152;2022-08-03T03:27:03;18.00;99.20
947;DHT22;460;48.734;9.152;2022-08-03T03:29:31;17.90;99.30
947;DHT22;460;48.734;9.152;2022-08-03T03:31:59;17.90;99.70
947;DHT22;460;48.734;9.152;2022-08-03T03:34:28;17.90;99.90
947;DHT22;460;48.734;9.152;2022-08-03T03:36:55;17.90;99.70
947;DHT22;460;48.734;9.152;2022-08-03T03:39:22;17.80;99.90
947;DHT22;460;48.734;9.152;2022-08-03T03:41:51;17.70;99.90
947;DHT22;460;48.734;9.152;2022-08-03T03:44:18;17.60;99.90
947;DHT22;460;48.734;9.152;2022-08-03T03:46:45;17.50;99.90
947;DHT22;460;48.734;9.152;2022-08-03T03:49:12;17.50;99.90
947;DHT22;460;48.734;9.152;2022-08-03T03:51:39;17.50;99.90
947;DHT22;460;48.734;9.152;2022-08-03T03:54:06;17.50;99.90
947;DHT22;460;48.734;9.152;2022-08-03T03:56:33;17.50;99.90
947;DHT22;460;48.734;9.152;2022-08-03T03:59:01;17.50;99.90
947;DHT22;460;48.734;9.152;2022-08-03T04:01:28;17.60;99.90
947;DHT22;460;48.734;9.152;2022-08-03T04:03:55;17.60;99.90
947;DHT22;460;48.734;9.152;2022-08-03T04:06:22;17.70;99.90
947;DHT22;460;48.734;9.152;2022-08-03T04:09:08;17.70;99.90
947;DHT22;460;48.734;9.152;2022-08-03T04:11:54;17.70;99.90
947;DHT22;460;48.734;9.152;2022-08-03T04:14:27;17.70;99.90
947;DHT22;460;48.734;9.152;2022-08-03T04:16:56;17.70;99.90
947;DHT22;460;48.734;9.152;2022-08-03T04:19:29;17.80;99.90
947;DHT22;460;48.734;9.152;2022-08-03T04:22:00;17.70;99.90
947;DHT22;460;48.734;9.152;2022-08-03T04:24:32;17.70;99.90
947;DHT22;460;48.734;9.152;2022-08-03T04:27:03;17.70;99.90
947;DHT22;460;48.734;9.152;2022-08-03T04:29:34;17.70;99.90
947;DHT22;460;48.734;9.152;2022-08-03T04:32:01;17.70;99.90
947;DHT22;460;48.734;9.152;2022-08-03T04:34:31;17.70;99.90
947;DHT22;460;48.734;9.152;2022-08-03T04:37:00;17.70;99.90
947;DHT22;460;48.734;9.152;2022-08-03T04:39:30;17.80;99.90
947;DHT22;460;48.734;9.152;2022-08-03T04:42:00;17.90;99.90
947;DHT22;460;48.734;9.152;2022-08-03T04:44:28;17.90;99.90
947;DHT22;460;48.734;9.152;2022-08-03T04:46:58;17.90;99.90
947;DHT22;460;48.734;9.152;2022-08-03T04:49:26;17.90;99.90
947;DHT22;460;48.734;9.152;2022-08-03T04:51:53;18.00;99.90
947;DHT22;460;48.734;9.152;2022-08-03T04:54:20;18.10;99.90
947;DHT22;460;48.734;9.152;2022-08-03T04:56:47;18.20;99.90
947;DHT22;460;48.734;9.152;2022-08-03T04:59:14;18.20;99.90
947;DHT22;460;48.734;9.152;2022-08-03T05:01:42;18.30;99.90
947;DHT22;460;48.734;9.152;2022-08-03T05:04:10;18.30;99.90
947;DHT22;460;48.734;9.152;2022-08-03T05:06:37;18.50;99.90
947;DHT22;460;48.734;9.152;2022-08-03T05:09:04;18.50;99.90
947;DHT22;460;48.734;9.152;2022-08-03T05:11:31;18.60;99.90
947;DHT22;460;48.734;9.152;2022-08-03T05:13:58;18.80;99.90
947;DHT22;460;48.734;9.152;2022-08-03T05:16:25;18.90;99.90
947;DHT22;460;48.734;9.152;2022-08-03T05:18:52;19.00;99.90
947;DHT22;460;48.734;9.152;2022-08-03T05:21:20;19.00;99.90
947;DHT22;460;48.734;9.152;2022-08-03T05:23:47;19.00;99.90
947;DHT22;460;48.734;9.152;2022-08-03T05:26:14;19.00;99.90
947;DHT22;460;48.734;9.152;2022-08-03T05:28:41;19.20;99.90
947;DHT22;460;48.734;9.152;2022-08-03T05:31:08;19.30;99.90
947;DHT22;460;48.734;9.152;2022-08-03T05:33:35;19.30;99.20
947;DHT22;460;48.734;9.152;2022-08-03T05:36:02;19.50;99.10
947;DHT22;460;48.734;9.152;2022-08-03T05:38:30;19.50;99.10
947;DHT22;460;48.734;9.152;2022-08-03T05:40:57;19.60;98.90
947;DHT22;460;48.734;9.152;2022-08-03T05:43:24;19.70;97.90
947;DHT22;460;48.734;9.152;2022-08-03T05:45:51;19.80;97.90
947;DHT22;460;48.734;9.152;2022-08-03T05:48:19;19.90;97.30
947;DHT22;460;48.734;9.152;2022-08-03T05:50:46;20.00;97.40
947;DHT22;460;48.734;9.152;2022-08-03T05:53:13;20.10;97.20
947;DHT22;460;48.734;9.152;2022-08-03T05:55:41;20.10;97.30
947;DHT22;460;48.734;9.152;2022-08-03T05:58:08;20.20;97.50
947;DHT22;460;48.734;9.152;2022-08-03T06:00:35;20.20;97.20
947;DHT22;460;48.734;9.152;2022-08-03T06:03:02;20.40;96.60
947;DHT22;460;48.734;9.152;2022-08-03T06:05:29;20.50;96.20
947;DHT22;460;48.734;9.152;2022-08-03T06:08:01;20.60;95.80
947;DHT22;460;48.734;9.152;2022-08-03T06:10:28;20.80;95.20
947;DHT22;460;48.734;9.152;2022-08-03T06:12:56;20.90;94.70
947;DHT22;460;48.734;9.152;2022-08-03T06:15:24;21.00;94.40
947;DHT22;460;48.734;9.152;2022-08-03T06:17:51;21.10;94.30
947;DHT22;460;48.734;9.152;2022-08-03T06:20:19;21.20;94.20
947;DHT22;460;48.734;9.152;2022-08-03T06:22:47;21.20;94.50
947;DHT22;460;48.734;9.152;2022-08-03T06:25:14;21.30;94.60
947;DHT22;460;48.734;9.152;2022-08-03T06:27:41;21.30;94.30
947;DHT22;460;48.734;9.152;2022-08-03T06:30:11;21.50;94.30
947;DHT22;460;48.734;9.152;2022-08-03T06:32:38;21.50;94.20
947;DHT22;460;48.734;9.152;2022-08-03T06:35:05;21.50;93.80
947;DHT22;460;48.734;9.152;2022-08-03T06:37:41;21.60;93.80
947;DHT22;460;48.734;9.152;2022-08-03T06:40:10;21.70;93.60
947;DHT22;460;48.734;9.152;2022-08-03T06:42:37;21.80;93.60
947;DHT22;460;48.734;9.152;2022-08-03T06:45:05;21.90;93.50
947;DHT22;460;48.734;9.152;2022-08-03T06:47:34;22.10;93.40
947;DHT22;460;48.734;9.152;2022-08-03T06:50:01;22.20;93.40
947;DHT22;460;48.734;9.152;2022-08-03T06:52:28;22.30;92.80
947;DHT22;460;48.734;9.152;2022-08-03T06:54:56;22.40;92.60
947;DHT22;460;48.734;9.152;2022-08-03T06:57:23;22.50;92.00
947;DHT22;460;48.734;9.152;2022-08-03T06:59:50;22.50;92.30
947;DHT22;460;48.734;9.152;2022-08-03T07:02:16;22.60;92.00
947;DHT22;460;48.734;9.152;2022-08-03T07:04:46;22.70;91.90
947;DHT22;460;48.734;9.152;2022-08-03T07:07:13;22.80;92.30
947;DHT22;460;48.734;9.152;2022-08-03T07:09:40;22.90;91.70
947;DHT22;460;48.734;9.152;2022-08-03T07:12:07;22.90;91.50
947;DHT22;460;48.734;9.152;2022-08-03T07:14:34;23.10;91.70
947;DHT22;460;48.734;9.152;2022-08-03T07:17:01;23.30;91.50
947;DHT22;460;48.734;9.152;2022-08-03T07:19:27;23.30;91.30
947;DHT22;460;48.734;9.152;2022-08-03T07:21:56;23.30;91.40
947;DHT22;460;48.734;9.152;2022-08-03T07:24:23;23.40;91.00
947;DHT22;460;48.734;9.152;2022-08-03T07:26:50;23.50;90.50
947;DHT22;460;48.734;9.152;2022-08-03T07:29:20;23.70;90.80
947;DHT22;460;48.734;9.152;2022-08-03T07:31:47;23.80;89.20
947;DHT22;460;48.734;9.152;2022-08-03T07:34:14;23.90;88.80
947;DHT22;460;48.734;9.152;2022-08-03T07:36:41;24.10;89.30
947;DHT22;460;48.734;9.152;2022-08-03T07:39:09;24.20;89.30
947;DHT22;460;48.734;9.152;2022-08-03T07:41:36;24.40;88.30
947;DHT22;460;48.734;9.152;2022-08-03T07:44:03;24.40;88.80
947;DHT22;460;48.734;9.152;2022-08-03T07:46:30;24.60;87.70
947;DHT22;460;48.734;9.152;2022-08-03T07:48:57;24.70;87.30
947;DHT22;460;48.734;9.152;2022-08-03T07:51:24;24.80;86.70
947;DHT22;460;48.734;9.152;2022-08-03T07:53:51;25.00;85.70
947;DHT22;460;48.734;9.152;2022-08-03T07:56:19;25.00;87.20
947;DHT22;460;48.734;9.152;2022-08-03T07:58:47;25.10;84.50
947;DHT22;460;48.734;9.152;2022-08-03T08:01:14;25.10;84.90
947;DHT22;460;48.734;9.152;2022-08-03T08:03:41;25.20;83.10
947;DHT22;460;48.734;9.152;2022-08-03T08:06:08;25.30;81.20
947;DHT22;460;48.734;9.152;2022-08-03T08:08:35;25.40;81.50
947;DHT22;460;48.734;9.152;2022-08-03T08:11:03;25.50;80.70
947;DHT22;460;48.734;9.152;2022-08-03T08:13:31;25.50;79.70
947;DHT22;460;48.734;9.152;2022-08-03T08:15:59;25.70;80.00
947;DHT22;460;48.734;9.152;2022-08-03T08:18:26;26.00;75.50
947;DHT22;460;48.734;9.152;2022-08-03T08:20:54;26.00;76.00
947;DHT22;460;48.734;9.152;2022-08-03T08:23:23;26.10;76.30
947;DHT22;460;48.734;9.152;2022-08-03T08:25:51;26.30;75.90
947;DHT22;460;48.734;9.152;2022-08-03T08:28:18;26.30;76.90
947;DHT22;460;48.734;9.152;2022-08-03T08:30:47;26.50;76.70
947;DHT22;460;48.734;9.152;2022-08-03T08:33:14;26.60;75.00
947;DHT22;460;48.734;9.152;2022-08-03T08:35:40;26.70;73.80
947;DHT22;460;48.734;9.152;2022-08-03T08:38:07;26.80;73.10
947;DHT22;460;48.734;9.152;2022-08-03T08:40:34;26.90;73.40
947;DHT22;460;48.734;9.152;2022-08-03T08:43:01;27.00;71.80
947;DHT22;460;48.734;9.152;2022-08-03T08:45:28;27.10;71.10
947;DHT22;460;48.734;9.152;2022-08-03T08:47:57;27.10;70.50
947;DHT22;460;48.734;9.152;2022-08-03T08:50:26;27.20;70.80
947;DHT22;460;48.734;9.152;2022-08-03T08:52:56;27.20;71.30
947;DHT22;460;48.734;9.152;2022-08-03T08:55:27;27.40;70.00
947;DHT22;460;48.734;9.152;2022-08-03T08:58:04;27.50;66.20
947;DHT22;460;48.734;9.152;2022-08-03T09:03:11;27.70;65.40
947;DHT22;460;48.734;9.152;2022-08-03T09:05:41;27.80;67.20
947;DHT22;460;48.734;9.152;2022-08-03T09:08:08;28.00;65.90
947;DHT22;460;48.734;9.152;2022-08-03T09:10:35;28.00;67.00
947;DHT22;460;48.734;9.152;2022-08-03T09:13:02;28.10;66.30
947;DHT22;460;48.734;9.152;2022-08-03T09:15:31;28.10;65.10
947;DHT22;460;48.734;9.152;2022-08-03T09:18:00;28.10;65.80
947;DHT22;460;48.734;9.152;2022-08-03T09:20:30;28.00;66.90
947;DHT22;460;48.734;9.152;2022-08-03T09:22:58;28.10;66.50
947;DHT22;460;48.734;9.152;2022-08-03T09:25:32;28.10;64.00
947;DHT22;460;48.734;9.152;2022-08-03T09:28:08;28.10;65.10
947;DHT22;460;48.734;9.152;2022-08-03T09:30:36;28.30;62.80
947;DHT22;460;48.734;9.152;2022-08-03T09:33:04;28.30;59.90
947;DHT22;460;48.734;9.152;2022-08-03T09:35:39;28.40;61.70
947;DHT22;460;48.734;9.152;2022-08-03T09:38:12;28.50;62.60
947;DHT22;460;48.734;9.152;2022-08-03T09:40:39;28.60;59.90
947;DHT22;460;48.734;9.152;2022-08-03T09:43:07;28.80;59.00
947;DHT22;460;48.734;9.152;2022-08-03T09:45:34;28.80;58.30
947;DHT22;460;48.734;9.152;2022-08-03T09:48:21;28.90;60.20
947;DHT22;460;48.734;9.152;2022-08-03T09:50:51;29.00;58.50
947;DHT22;460;48.734;9.152;2022-08-03T09:53:18;29.10;56.00
947;DHT22;460;48.734;9.152;2022-08-03T09:55:52;29.10;56.90
947;DHT22;460;48.734;9.152;2022-08-03T09:58:20;29.30;58.00
947;DHT22;460;48.734;9.152;2022-08-03T10:00:52;29.40;58.50
947;DHT22;460;48.734;9.152;2022-08-03T10:03:19;29.50;58.50
947;DHT22;460;48.734;9.152;2022-08-03T10:05:46;29.60;56.90
947;DHT22;460;48.734;9.152;2022-08-03T10:08:16;29.70;54.90
947;DHT22;460;48.734;9.152;2022-08-03T10:10:45;29.80;54.60
947;DHT22;460;48.734;9.152;2022-08-03T10:13:13;29.70;55.80
947;DHT22;460;48.734;9.152;2022-08-03T10:15:40;29.80;54.50
947;DHT22;460;48.734;9.152;2022-08-03T10:18:07;29.90;54.80
947;DHT22;460;48.734;9.152;2022-08-03T10:20:37;30.00;54.80
947;DHT22;460;48.734;9.152;2022-08-03T10:23:07;30.00;53.70
947;DHT22;460;48.734;9.152;2022-08-03T10:25:37;30.10;54.20
947;DHT22;460;48.734;9.152;2022-08-03T10:28:05;30.30;53.30
947;DHT22;460;48.734;9.152;2022-08-03T10:30:34;30.40;54.00
947;DHT22;460;48.734;9.152;2022-08-03T10:33:06;30.50;54.10
947;DHT22;460;48.734;9.152;2022-08-03T10:35:36;30.60;55.30
947;DHT22;460;48.734;9.152;2022-08-03T10:38:08;30.60;53.10
947;DHT22;460;48.734;9.152;2022-08-03T10:40:37;30.70;53.40
947;DHT22;460;48.734;9.152;2022-08-03T10:43:08;30.70;53.60
947;DHT22;460;48.734;9.152;2022-08-03T10:45:39;30.90;53.20
947;DHT22;460;48.734;9.152;2022-08-03T10:48:07;30.90;54.50
947;DHT22;460;48.734;9.152;2022-08-03T10:50:34;31.20;53.20
947;DHT22;460;48.734;9.152;2022-08-03T10:53:03;31.20;53.90
947;DHT22;460;48.734;9.152;2022-08-03T10:55:32;31.40;53.20
947;DHT22;460;48.734;9.152;2022-08-03T10:58:48;31.50;51.20
947;DHT22;460;48.734;9.152;2022-08-03T11:01:16;31.80;51.80
947;DHT22;460;48.734;9.152;2022-08-03T11:04:15;32.00;50.70
947;DHT22;460;48.734;9.152;2022-08-03T11:06:43;31.90;50.40
947;DHT22;460;48.734;9.152;2022-08-03T11:09:15;32.00;50.40
947;DHT22;460;48.734;9.152;2022-08-03T11:11:44;32.20;50.90
947;DHT22;460;48.734;9.152;2022-08-03T11:14:15;32.10;50.30
947;DHT22;460;48.734;9.152;2022-08-03T11:16:44;32.20;50.70
947;DHT22;460;48.734;9.152;2022-08-03T11:19:13;32.40;50.70
947;DHT22;460;48.734;9.152;2022-08-03T11:21:54;32.50;51.50
947;DHT22;460;48.734;9.152;2022-08-03T11:24:55;32.80;51.10
947;DHT22;460;48.734;9.152;2022-08-03T11:27:23;33.10;49.40
947;DHT22;460;48.734;9.152;2022-08-03T11:30:03;33.40;48.50
947;DHT22;460;48.734;9.152;2022-08-03T11:32:57;33.40;47.50
947;DHT22;460;48.734;9.152;2022-08-03T11:35:28;33.50;48.10
947;DHT22;460;48.734;9.152;2022-08-03T11:38:13;33.80;48.30
947;DHT22;460;48.734;9.152;2022-08-03T11:40:45;33.90;47.40
947;DHT22;460;48.734;9.152;2022-08-03T11:43:42;34.10;48.90
947;DHT22;460;48.734;9.152;2022-08-03T11:46:12;34.60;48.10
947;DHT22;460;48.734;9.152;2022-08-03T11:48:44;34.60;47.40
947;DHT22;460;48.734;9.152;2022-08-03T11:51:22;34.80;47.30
947;DHT22;460;48.734;9.152;2022-08-03T11:53:53;35.40;46.00
947;DHT22;460;48.734;9.152;2022-08-03T11:56:20;35.60;44.90
947;DHT22;460;48.734;9.152;2022-08-03T11:58:48;36.30;43.90
947;DHT22;460;48.734;9.152;2022-08-03T12:01:18;36.40;45.00
947;DHT22;460;48.734;9.152;2022-08-03T12:03:46;36.90;43.50
947;DHT22;460;48.734;9.152;2022-08-03T12:06:15;37.50;43.30
947;DHT22;460;48.734;9.152;2022-08-03T12:08:43;38.60;43.00
947;DHT22;460;48.734;9.152;2022-08-03T12:11:12;38.60;43.00
947;DHT22;460;48.734;9.152;2022-08-03T12:13:41;39.10;41.00
947;DHT22;460;48.734;9.152;2022-08-03T12:16:08;39.00;41.90
947;DHT22;460;48.734;9.152;2022-08-03T12:18:37;40.00;40.50
947;DHT22;460;48.734;9.152;2022-08-03T12:21:06;40.30;38.90
947;DHT22;460;48.734;9.152;2022-08-03T12:23:33;41.10;38.00
947;DHT22;460;48.734;9.152;2022-08-03T12:26:01;41.40;37.90
947;DHT22;460;48.734;9.152;2022-08-03T12:28:28;41.70;36.30
947;DHT22;460;48.734;9.152;2022-08-03T12:31:00;42.00;36.90
947;DHT22;460;48.734;9.152;2022-08-03T12:33:28;42.00;38.40
947;DHT22;460;48.734;9.152;2022-08-03T12:36:05;42.00;37.10
947;DHT22;460;48.734;9.152;2022-08-03T12:38:33;42.60;35.50
947;DHT22;460;48.734;9.152;2022-08-03T12:41:04;42.70;34.90
947;DHT22;460;48.734;9.152;2022-08-03T12:43:31;42.90;35.50
947;DHT22;460;48.734;9.152;2022-08-03T12:46:12;42.90;36.60
947;DHT22;460;48.734;9.152;2022-08-03T12:49:05;42.90;34.90
947;DHT22;460;48.734;9.152;2022-08-03T12:51:35;43.30;34.40
947;DHT22;460;48.734;9.152;2022-08-03T12:54:03;43.40;33.80
947;DHT22;460;48.734;9.152;2022-08-03T12:56:30;43.80;33.20
947;DHT22;460;48.734;9.152;2022-08-03T12:58:57;43.70;33.40
947;DHT22;460;48.734;9.152;2022-08-03T13:01:25;43.50;33.50
947;DHT22;460;48.734;9.152;2022-08-03T13:03:54;43.60;33.00
947;DHT22;460;48.734;9.152;2022-08-03T13:06:22;43.60;33.80
947;DHT22;460;48.734;9.152;2022-08-03T13:09:02;43.80;33.60
947;DHT22;460;48.734;9.152;2022-08-03T13:11:29;44.10;32.90
947;DHT22;460;48.734;9.152;2022-08-03T13:13:56;44.00;33.70
947;DHT22;460;48.734;9.152;2022-08-03T13:16:23;44.30;33.60
947;DHT22;460;48.734;9.152;2022-08-03T13:18:50;44.30;32.50
947;DHT22;460;48.734;9.152;2022-08-03T13:21:19;44.50;32.40
947;DHT22;460;48.734;9.152;2022-08-03T13:23:47;44.50;32.10
947;DHT22;460;48.734;9.152;2022-08-03T13:26:15;44.70;32.70
947;DHT22;460;48.734;9.152;2022-08-03T13:28:42;44.10;33.00
947;DHT22;460;48.734;9.152;2022-08-03T13:31:09;44.50;32.30
947;DHT22;460;48.734;9.152;2022-08-03T13:33:36;44.70;33.40
947;DHT22;460;48.734;9.152;2022-08-03T13:36:05;44.80;31.80
947;DHT22;460;48.734;9.152;2022-08-03T13:38:32;43.30;33.40
947;DHT22;460;48.734;9.152;2022-08-03T13:41:01;42.10;33.80
947;DHT22;460;48.734;9.152;2022-08-03T13:43:29;42.70;34.20
947;DHT22;460;48.734;9.152;2022-08-03T13:45:56;43.50;33.20
947;DHT22;460;48.734;9.152;2022-08-03T13:48:23;44.00;33.50
947;DHT22;460;48.734;9.152;2022-08-03T13:50:50;44.50;33.30
947;DHT22;460;48.734;9.152;2022-08-03T13:53:17;43.80;32.40
947;DHT22;460;48.734;9.152;2022-08-03T13:55:44;44.00;32.20
947;DHT22;460;48.734;9.152;2022-08-03T13:58:11;44.40;31.80
947;DHT22;460;48.734;9.152;2022-08-03T14:00:39;44.60;32.40
947;DHT22;460;48.734;9.152;2022-08-03T14:03:06;44.80;31.20
947;DHT22;460;48.734;9.152;2022-08-03T14:05:34;44.50;31.90
947;DHT22;460;48.734;9.152;2022-08-03T14:08:03;44.20;32.30
947;DHT22;460;48.734;9.152;2022-08-03T14:10:32;44.40;32.00
947;DHT22;460;48.734;9.152;2022-08-03T14:12:59;44.00;32.90
947;DHT22;460;48.734;9.152;2022-08-03T14:15:26;44.20;32.50
947;DHT22;460;48.734;9.152;2022-08-03T14:17:55;44.00;32.70
947;DHT22;460;48.734;9.152;2022-08-03T14:20:21;44.20;31.60
947;DHT22;460;48.734;9.152;2022-08-03T14:22:48;43.90;32.00
947;DHT22;460;48.734;9.152;2022-08-03T14:25:15;43.90;31.30
947;DHT22;460;48.734;9.152;2022-08-03T14:27:42;43.70;31.60
947;DHT22;460;48.734;9.152;2022-08-03T14:30:10;43.80;32.00
947;DHT22;460;48.734;9.152;2022-08-03T14:32:37;43.90;31.50
947;DHT22;460;48.734;9.152;2022-08-03T14:35:07;43.30;31.90
947;DHT22;460;48.734;9.152;2022-08-03T14:37:34;42.70;32.10
947;DHT22;460;48.734;9.152;2022-08-03T14:40:01;42.50;32.20
947;DHT22;460;48.734;9.152;2022-08-03T14:42:28;42.60;32.50
947;DHT22;460;48.734;9.152;2022-08-03T14:44:55;42.90;31.90
947;DHT22;460;48.734;9.152;2022-08-03T14:47:22;42.60;32.00
947;DHT22;460;48.734;9.152;2022-08-03T14:49:48;41.70;33.80
947;DHT22;460;48.734;9.152;2022-08-03T14:52:17;40.90;33.60
947;DHT22;460;48.734;9.152;2022-08-03T14:54:44;40.60;34.60
947;DHT22;460;48.734;9.152;2022-08-03T14:57:11;40.10;34.60
947;DHT22;460;48.734;9.152;2022-08-03T14:59:38;39.90;34.50
947;DHT22;460;48.734;9.152;2022-08-03T15:02:05;39.40;35.10
947;DHT22;460;48.734;9.152;2022-08-03T15:04:31;39.10;35.40
947;DHT22;460;48.734;9.152;2022-08-03T15:06:58;38.30;36.30
947;DHT22;460;48.734;9.152;2022-08-03T15:09:27;37.30;37.50
947;DHT22;460;48.734;9.152;2022-08-03T15:11:53;37.00;37.50
947;DHT22;460;48.734;9.152;2022-08-03T15:14:20;36.50;37.00
947;DHT22;460;48.734;9.152;2022-08-03T15:16:47;36.50;37.30
947;DHT22;460;48.734;9.152;2022-08-03T15:19:14;36.30;38.90
947;DHT22;460;48.734;9.152;2022-08-03T15:21:41;35.80;38.40
947;DHT22;460;48.734;9.152;2022-08-03T15:24:08;35.70;39.40
947;DHT22;460;48.734;9.152;2022-08-03T15:26:36;35.30;38.70
947;DHT22;460;48.734;9.152;2022-08-03T15:29:03;35.20;39.50
947;DHT22;460;48.734;9.152;2022-08-03T15:31:30;34.80;40.30
947;DHT22;460;48.734;9.152;2022-08-03T15:33:57;34.60;40.60
947;DHT22;460;48.734;9.152;2022-08-03T15:36:24;34.40;41.30
947;DHT22;460;48.734;9.152;2022-08-03T15:38:54;34.40;40.30
947;DHT22;460;48.734;9.152;2022-08-03T15:41:21;34.10;39.90
947;DHT22;460;48.734;9.152;2022-08-03T15:43:49;34.10;39.50
947;DHT22;460;48.734;9.152;2022-08-03T15:46:17;33.90;39.80
947;DHT22;460;48.734;9.152;2022-08-03T15:48:44;33.80;40.40
947;DHT22;460;48.734;9.152;2022-08-03T15:51:11;33.40;41.00
947;DHT22;460;48.734;9.152;2022-08-03T15:53:38;33.40;41.20
947;DHT22;460;48.734;9.152;2022-08-03T15:56:05;33.50;41.30
947;DHT22;460;48.734;9.152;2022-08-03T15:58:34;33.50;41.50
947;DHT22;460;48.734;9.152;2022-08-03T16:01:04;33.40;41.60
947;DHT22;460;48.734;9.152;2022-08-03T16:03:31;33.20;41.00
947;DHT22;460;48.734;9.152;2022-08-03T16:06:00;33.10;41.60
947;DHT22;460;48.734;9.152;2022-08-03T16:08:36;33.10;41.70
947;DHT22;460;48.734;9.152;2022-08-03T16:11:03;33.10;41.00
947;DHT22;460;48.734;9.152;2022-08-03T16:13:30;33.00;41.20
947;DHT22;460;48.734;9.152;2022-08-03T16:15:57;32.90;42.50
947;DHT22;460;48.734;9.152;2022-08-03T16:18:25;32.90;41.50
947;DHT22;460;48.734;9.152;2022-08-03T16:20:56;32.80;41.60
947;DHT22;460;48.734;9.152;2022-08-03T16:23:23;32.70;42.30
947;DHT22;460;48.734;9.152;2022-08-03T16:25:50;32.50;41.00
947;DHT22;460;48.734;9.152;2022-08-03T16:28:17;32.50;41.20
947;DHT22;460;48.734;9.152;2022-08-03T16:30:45;32.10;40.90
947;DHT22;460;48.734;9.152;2022-08-03T16:33:13;32.10;42.80
947;DHT22;460;48.734;9.152;2022-08-03T16:35:41;32.10;42.40
947;DHT22;460;48.734;9.152;2022-08-03T16:38:08;32.10;43.40
947;DHT22;460;48.734;9.152;2022-08-03T16:40:35;31.80;42.50
947;DHT22;460;48.734;9.152;2022-08-03T16:43:12;31.90;42.90
947;DHT22;460;48.734;9.152;2022-08-03T16:45:42;31.90;41.90
947;DHT22;460;48.734;9.152;2022-08-03T16:48:09;31.90;42.10
947;DHT22;460;48.734;9.152;2022-08-03T16:50:36;31.90;42.30
947;DHT22;460;48.734;9.152;2022-08-03T16:53:05;31.70;42.60
947;DHT22;460;48.734;9.152;2022-08-03T16:55:33;31.70;43.50